Time;durP1;ratioP1;P1;durP2;ratioP2;P2;SDS_P1;SDS_P2;PMS_P1;PMS_P2;Temp;Humidity;BMP_temperature;BMP_pressure;BME280_temperature;BME280_humidity;BME280_pressure;Samples;Min_cycle;Max_cycle;Signal;HPM_P1;HPM_P2
2024/03/24 00:01:24;;;;;;;6.40;2.88;;;;;;;6.51;100.00;100458.38;5246346;28;20505;-81
2024/03/24 00:03:56;;;;;;;5.93;2.47;;;;;;;6.45;100.00;100443.22;5244063;28;20041;-81
2024/03/24 00:06:28;;;;;;;6.45;2.97;;;;;;;6.57;100.00;100444.09;5247208;28;20033;-80
2024/03/24 00:09:00;;;;;;;9.23;3.30;;;;;;;6.57;100.00;100470.94;5245396;28;20532;-81
2024/03/24 00:11:33;;;;;;;7.07;2.70;;;;;;;6.56;100.00;100445.03;5244431;28;20377;-80
2024/03/24 00:14:05;;;;;;;6.82;2.55;;;;;;;6.67;100.00;100467.69;5247950;28;20402;-80
2024/03/24 00:16:36;;;;;;;8.00;3.28;;;;;;;6.73;100.00;100448.97;5250493;28;20033;-80
2024/03/24 00:19:08;;;;;;;6.75;2.20;;;;;;;6.64;100.00;100428.84;5247209;28;20020;-80
2024/03/24 00:21:40;;;;;;;5.40;2.42;;;;;;;6.78;100.00;100449.44;5248135;28;20406;-80
2024/03/24 00:24:12;;;;;;;5.20;2.30;;;;;;;6.81;100.00;100438.81;5247711;28;20032;-80
2024/03/24 00:26:44;;;;;;;5.40;2.50;;;;;;;6.82;100.00;100454.34;5248055;28;20031;-81
2024/03/24 00:29:16;;;;;;;4.22;2.33;;;;;;;6.89;100.00;100446.03;5248902;28;20029;-80
2024/03/24 00:31:48;;;;;;;5.40;2.40;;;;;;;6.92;100.00;100449.25;5248240;28;20512;-80
2024/03/24 00:34:20;;;;;;;6.10;2.55;;;;;;;6.99;100.00;100447.00;5249258;28;20036;-80
2024/03/24 00:36:51;;;;;;;5.57;2.50;;;;;;;6.99;100.00;100442.63;5248246;28;20048;-80
2024/03/24 00:39:23;;;;;;;5.15;2.53;;;;;;;6.96;100.00;100436.81;5248424;28;20040;-80
2024/03/24 00:41:55;;;;;;;6.38;2.63;;;;;;;7.02;100.00;100431.97;5248515;28;20047;-81
2024/03/24 00:44:28;;;;;;;5.75;2.60;;;;;;;6.98;100.00;100432.34;5249309;28;20324;-80
2024/03/24 00:46:59;;;;;;;4.17;2.50;;;;;;;6.91;100.00;100442.38;5248449;28;20037;-80
2024/03/24 00:49:31;;;;;;;5.53;2.60;;;;;;;6.93;100.00;100421.41;5249017;28;20047;-80
2024/03/24 00:52:05;;;;;;;4.00;2.42;;;;;;;6.93;100.00;100421.41;5247063;28;20036;-80
2024/03/24 00:54:37;;;;;;;4.85;2.30;;;;;;;6.95;100.00;100411.72;5248843;28;20395;-79
2024/03/24 00:57:09;;;;;;;5.90;3.10;;;;;;;6.97;100.00;100410.69;5246071;28;20517;-79
2024/03/24 00:59:41;;;;;;;6.35;2.50;;;;;;;6.95;100.00;100398.72;5245113;28;20025;-79
2024/03/24 01:02:13;;;;;;;6.60;2.55;;;;;;;6.93;100.00;100395.38;5243342;28;20032;-80
2024/03/24 01:04:45;;;;;;;4.22;2.50;;;;;;;6.99;100.00;100408.75;5226939;28;20671;-78
2024/03/24 01:07:16;;;;;;;5.95;2.60;;;;;;;6.98;100.00;100393.28;5245213;28;20033;-79
2024/03/24 01:09:53;;;;;;;7.03;2.70;;;;;;;7.05;100.00;100392.69;5246491;28;20048;-81
2024/03/24 01:12:26;;;;;;;5.10;2.30;;;;;;;6.97;100.00;100389.84;5248346;28;20029;-80
2024/03/24 01:14:58;;;;;;;4.05;2.38;;;;;;;6.97;100.00;100370.75;5247833;28;20060;-79
2024/03/24 01:17:30;;;;;;;6.15;3.13;;;;;;;6.82;100.00;100367.59;5247000;28;20031;-79
2024/03/24 01:20:02;;;;;;;5.75;3.03;;;;;;;6.92;100.00;100378.94;5245175;28;20037;-79
2024/03/24 01:22:34;;;;;;;7.00;2.53;;;;;;;6.92;100.00;100376.31;5247993;28;20404;-79
2024/03/24 01:25:07;;;;;;;5.80;2.47;;;;;;;6.91;100.00;100366.88;5248817;28;20041;-79
2024/03/24 01:27:39;;;;;;;7.72;3.28;;;;;;;6.94;100.00;100368.41;5246824;28;20040;-81
2024/03/24 01:30:11;;;;;;;5.30;2.80;;;;;;;6.95;100.00;100363.06;5246264;28;20024;-79
2024/03/24 01:32:43;;;;;;;7.75;3.10;;;;;;;6.99;100.00;100354.06;5229668;28;20067;-79
2024/03/24 01:35:15;;;;;;;5.38;3.13;;;;;;;6.88;100.00;100333.25;5248358;28;20037;-82
2024/03/24 01:37:47;;;;;;;4.55;2.67;;;;;;;6.93;100.00;100344.16;5248396;28;20268;-81
2024/03/24 01:40:19;;;;;;;7.47;3.00;;;;;;;6.99;100.00;100348.03;5246440;28;20506;-78
2024/03/24 01:42:51;;;;;;;6.88;3.72;;;;;;;6.99;100.00;100346.25;5247961;28;20036;-79
2024/03/24 01:45:23;;;;;;;5.85;3.33;;;;;;;7.00;100.00;100337.50;5244539;28;20063;-81
2024/03/24 01:47:55;;;;;;;7.95;3.97;;;;;;;7.01;100.00;100335.75;5247077;28;20045;-81
2024/03/24 01:50:26;;;;;;;5.90;3.50;;;;;;;7.01;100.00;100338.34;5247109;28;20394;-78
2024/03/24 01:52:59;;;;;;;6.93;3.60;;;;;;;7.03;100.00;100328.63;5246901;28;20043;-78
2024/03/24 01:55:31;;;;;;;6.40;3.40;;;;;;;7.13;100.00;100328.75;5248149;28;20043;-79
2024/03/24 01:58:03;;;;;;;7.95;3.97;;;;;;;7.09;100.00;100322.13;5247626;28;20028;-78
2024/03/24 02:00:35;;;;;;;7.95;4.35;;;;;;;7.01;100.00;100313.13;5248673;28;20268;-79
2024/03/24 02:03:07;;;;;;;6.63;3.35;;;;;;;7.03;100.00;100308.59;5248780;28;20036;-79
2024/03/24 02:05:39;;;;;;;6.20;3.90;;;;;;;7.00;100.00;100308.03;5248839;28;20029;-81
2024/03/24 02:08:11;;;;;;;9.00;3.95;;;;;;;6.96;100.00;100283.16;5247458;28;20039;-79
2024/03/24 02:10:43;;;;;;;6.38;3.55;;;;;;;7.05;100.00;100295.47;5248260;28;20534;-81
2024/03/24 02:13:15;;;;;;;4.85;3.28;;;;;;;7.11;100.00;100281.13;5248140;28;20502;-81
2024/03/24 02:15:51;;;;;;;7.10;3.33;;;;;;;7.11;100.00;100284.56;5247856;28;20062;-79
2024/03/24 02:18:24;;;;;;;6.75;3.88;;;;;;;7.09;100.00;100288.25;5246614;28;20033;-78
2024/03/24 02:20:56;;;;;;;5.97;3.65;;;;;;;7.06;100.00;100290.13;5247513;28;20027;-79
2024/03/24 02:23:28;;;;;;;5.32;3.83;;;;;;;7.09;100.00;100291.69;5247096;28;20080;-80
2024/03/24 02:25:59;;;;;;;6.57;3.67;;;;;;;7.10;100.00;100285.53;5248613;28;20036;-81
2024/03/24 02:28:31;;;;;;;6.60;3.80;;;;;;;7.15;100.00;100279.94;5246015;28;20033;-79
2024/03/24 02:31:03;;;;;;;5.47;3.35;;;;;;;7.15;100.00;100275.56;5247004;28;20032;-80
2024/03/24 02:33:35;;;;;;;5.82;3.63;;;;;;;7.10;100.00;100277.69;5245712;28;20043;-79
2024/03/24 02:36:08;;;;;;;8.43;4.00;;;;;;;7.08;100.00;100271.78;5247332;28;20032;-81
2024/03/24 02:38:39;;;;;;;6.97;3.70;;;;;;;7.19;100.00;100278.75;5246415;28;20032;-81
2024/03/24 02:41:11;;;;;;;8.43;3.45;;;;;;;7.20;100.00;100277.81;5247174;28;20964;-80
2024/03/24 02:43:43;;;;;;;7.60;4.10;;;;;;;7.21;100.00;100274.25;5228916;28;20072;-81
2024/03/24 02:46:15;;;;;;;7.47;3.75;;;;;;;7.21;100.00;100269.03;5248209;28;20033;-79
2024/03/24 02:48:47;;;;;;;9.02;4.10;;;;;;;7.21;100.00;100269.88;5248384;28;20040;-81
2024/03/24 02:51:19;;;;;;;6.15;3.35;;;;;;;7.21;100.00;100266.44;5250685;28;20041;-79
2024/03/24 02:53:51;;;;;;;9.07;3.97;;;;;;;7.20;100.00;100260.41;5250784;28;20107;-79
2024/03/24 02:56:23;;;;;;;7.85;3.58;;;;;;;7.26;100.00;100269.50;5250497;28;20569;-79
2024/03/24 02:58:55;;;;;;;8.43;4.82;;;;;;;7.23;100.00;100267.13;5252251;28;20052;-78
2024/03/24 03:01:27;;;;;;;6.90;3.53;;;;;;;7.28;100.00;100263.22;5252242;28;20051;-78
2024/03/24 03:03:58;;;;;;;7.88;3.78;;;;;;;7.31;100.00;100273.41;5250272;28;20041;-79
2024/03/24 03:06:31;;;;;;;5.47;3.40;;;;;;;7.22;100.00;100260.28;5250992;28;20471;-80
2024/03/24 03:09:07;;;;;;;7.10;3.80;;;;;;;7.28;100.00;100270.22;5247680;28;20044;-79
2024/03/24 03:11:39;;;;;;;8.93;3.58;;;;;;;7.35;100.00;100268.78;5246979;28;20052;-78
2024/03/24 03:14:11;;;;;;;5.80;3.30;;;;;;;7.38;100.00;100252.03;5251308;28;20120;-79
2024/03/24 03:16:43;;;;;;;6.93;4.30;;;;;;;7.31;100.00;100249.09;5249360;28;20036;-79
2024/03/24 03:19:15;;;;;;;5.78;3.55;;;;;;;7.32;100.00;100246.38;5248369;28;20035;-79
2024/03/24 03:21:47;;;;;;;9.15;4.03;;;;;;;7.40;100.00;100248.38;5251029;28;20548;-79
2024/03/24 03:24:19;;;;;;;7.38;4.07;;;;;;;7.40;100.00;100245.75;5251756;28;20032;-81
2024/03/24 03:26:51;;;;;;;9.95;4.63;;;;;;;7.41;100.00;100249.19;5253976;28;20040;-81
2024/03/24 03:29:22;;;;;;;7.43;4.35;;;;;;;7.38;100.00;100239.84;5249714;28;20332;-80
2024/03/24 03:31:54;;;;;;;7.97;3.88;;;;;;;7.40;100.00;100244.94;5250208;28;20037;-78
2024/03/24 03:34:26;;;;;;;5.78;4.13;;;;;;;7.43;100.00;100236.88;5248858;28;20029;-78
2024/03/24 03:36:58;;;;;;;5.80;3.63;;;;;;;7.41;100.00;100238.78;5249676;28;20421;-79
2024/03/24 03:39:30;;;;;;;6.43;4.05;;;;;;;7.45;100.00;100235.78;5248413;28;20032;-82
2024/03/24 03:42:03;;;;;;;6.65;4.45;;;;;;;7.47;100.00;100240.88;5249565;28;20037;-79
2024/03/24 03:44:35;;;;;;;8.60;5.30;;;;;;;7.44;100.00;100235.91;5249193;28;20356;-79
2024/03/24 03:47:07;;;;;;;7.18;4.78;;;;;;;7.43;100.00;100242.09;5248062;28;20035;-79
2024/03/24 03:49:40;;;;;;;10.07;5.18;;;;;;;7.45;100.00;100232.34;5249545;28;20032;-81
2024/03/24 03:52:11;;;;;;;7.60;5.50;;;;;;;7.49;100.00;100239.78;5249028;28;20040;-80
2024/03/24 03:54:47;;;;;;;6.43;5.03;;;;;;;7.53;100.00;100235.97;5249300;28;20227;-79
2024/03/24 03:57:20;;;;;;;8.23;4.68;;;;;;;7.50;100.00;100233.66;5248751;28;20041;-81
2024/03/24 03:59:52;;;;;;;7.68;5.22;;;;;;;7.50;100.00;100230.19;5229773;28;20036;-79
2024/03/24 04:02:25;;;;;;;8.23;5.47;;;;;;;7.52;100.00;100231.72;5249447;28;20036;-78
2024/03/24 04:04:57;;;;;;;9.00;4.93;;;;;;;7.56;100.00;100230.53;5249873;28;20037;-79
2024/03/24 04:07:31;;;;;;;8.52;5.25;;;;;;;7.55;100.00;100228.88;5249319;28;20033;-79
2024/03/24 04:10:04;;;;;;;9.68;5.70;;;;;;;7.48;100.00;100219.91;5247051;28;20475;-83
2024/03/24 04:12:36;;;;;;;;;;;;;;;8.17;100.00;100224.59;5249699;28;20032;-81
2024/03/24 04:15:08;;;;;;;10.05;7.13;;;;;;;7.62;100.00;100229.22;5249514;28;20184;-78
2024/03/24 04:17:40;;;;;;;11.20;7.13;;;;;;;7.66;100.00;100232.38;5248566;28;20493;-79
2024/03/24 04:20:12;;;;;;;11.60;7.50;;;;;;;7.65;100.00;100228.09;5247419;28;20029;-79
2024/03/24 04:22:45;;;;;;;12.15;7.25;;;;;;;7.60;100.00;100228.50;5246490;28;20041;-78
2024/03/24 04:25:17;;;;;;;10.73;7.93;;;;;;;7.67;100.00;100221.00;5249457;28;20383;-80
2024/03/24 04:27:49;;;;;;;14.02;8.05;;;;;;;7.61;100.00;100211.06;5248631;28;20289;-82
2024/03/24 04:30:21;;;;;;;12.57;7.50;;;;;;;7.55;100.00;100202.81;5247662;28;20033;-79
2024/03/24 04:32:53;;;;;;;18.98;7.30;;;;;;;7.57;100.00;100213.91;5249860;28;20034;-79
2024/03/24 04:35:25;;;;;;;12.43;6.93;;;;;;;7.55;100.00;100213.22;5247896;28;20478;-81
2024/03/24 04:37:57;;;;;;;12.40;6.28;;;;;;;7.50;100.00;100210.19;5248718;28;20343;-79
2024/03/24 04:40:29;;;;;;;9.25;5.80;;;;;;;7.52;100.00;100216.09;5247250;28;20192;-79
2024/03/24 04:43:02;;;;;;;12.18;5.75;;;;;;;7.54;100.00;100215.97;5247884;28;20404;-81
2024/03/24 04:45:33;;;;;;;13.48;5.57;;;;;;;7.54;100.00;100226.41;5248093;28;20039;-79
2024/03/24 04:48:06;;;;;;;11.57;5.18;;;;;;;7.55;100.00;100221.06;5247651;28;20541;-80
2024/03/24 04:50:38;;;;;;;14.75;5.88;;;;;;;7.59;100.00;100229.44;5247947;28;20036;-81
2024/03/24 04:53:10;;;;;;;13.38;5.50;;;;;;;7.61;100.00;100224.91;5249240;28;20363;-79
2024/03/24 04:55:41;;;;;;;12.57;5.15;;;;;;;7.56;100.00;100212.28;5248456;28;20032;-79
2024/03/24 04:58:14;;;;;;;12.82;5.50;;;;;;;7.66;100.00;100229.78;5246994;28;20048;-81
2024/03/24 05:00:46;;;;;;;14.30;5.45;;;;;;;7.63;100.00;100211.78;5246697;28;20391;-81
2024/03/24 05:03:18;;;;;;;11.43;5.07;;;;;;;7.69;100.00;100227.75;5249337;28;20196;-80
2024/03/24 05:05:50;;;;;;;10.70;4.63;;;;;;;7.66;100.00;100222.78;5247913;28;20033;-79
2024/03/24 05:08:21;;;;;;;13.05;5.90;;;;;;;7.70;100.00;100228.56;5248488;28;20040;-79
2024/03/24 05:10:54;;;;;;;17.08;4.95;;;;;;;7.68;100.00;100231.28;5245756;28;20401;-81
2024/03/24 05:13:25;;;;;;;15.73;4.88;;;;;;;7.70;100.00;100229.41;5249159;28;20033;-79
2024/03/24 05:15:58;;;;;;;12.85;4.63;;;;;;;7.73;100.00;100234.38;5246969;28;20197;-79
2024/03/24 05:18:30;;;;;;;13.30;5.40;;;;;;;7.77;100.00;100229.72;5245819;28;20051;-81
2024/03/24 05:21:05;;;;;;;12.88;4.90;;;;;;;7.77;100.00;100235.75;5246682;28;20036;-79
2024/03/24 05:23:36;;;;;;;14.90;5.85;;;;;;;7.75;100.00;100231.63;5248729;28;20029;-81
2024/03/24 05:26:09;;;;;;;12.48;4.93;;;;;;;7.73;100.00;100228.31;5247898;28;20037;-80
2024/03/24 05:28:41;;;;;;;10.73;4.40;;;;;;;7.81;100.00;100236.34;5246355;28;20293;-80
2024/03/24 05:31:13;;;;;;;13.65;4.53;;;;;;;7.75;100.00;100239.44;5246406;28;20037;-79
2024/03/24 05:33:47;;;;;;;13.35;4.40;;;;;;;7.72;100.00;100226.66;5245727;28;20033;-79
2024/03/24 05:36:19;;;;;;;8.55;4.20;;;;;;;7.72;100.00;100226.66;5246662;28;20592;-80
2024/03/24 05:38:51;;;;;;;9.57;4.25;;;;;;;7.76;100.00;100238.47;5244875;28;20040;-80
2024/03/24 05:41:23;;;;;;;14.82;4.75;;;;;;;7.75;100.00;100221.19;5249421;28;20033;-80
2024/03/24 05:43:55;;;;;;;13.27;4.35;;;;;;;7.78;100.00;100240.00;5248234;28;20503;-81
2024/03/24 05:46:27;;;;;;;13.60;4.78;;;;;;;7.74;100.00;100236.00;5252301;28;20074;-81
2024/03/24 05:48:59;;;;;;;10.57;4.25;;;;;;;7.76;100.00;100241.09;5250999;28;20036;-80
2024/03/24 05:51:31;;;;;;;13.93;4.22;;;;;;;7.74;100.00;100236.00;5249446;28;20025;-81
2024/03/24 05:54:03;;;;;;;15.00;5.05;;;;;;;7.78;100.00;100241.81;5249103;28;20021;-80
2024/03/24 05:56:35;;;;;;;12.77;4.63;;;;;;;7.78;100.00;100258.28;5246805;28;20029;-81
2024/03/24 05:59:07;;;;;;;12.15;4.35;;;;;;;7.80;100.00;100260.72;5247348;28;20036;-80
2024/03/24 06:01:39;;;;;;;13.30;4.68;;;;;;;7.76;100.00;100265.38;5248094;28;20034;-81
2024/03/24 06:04:11;;;;;;;12.13;4.75;;;;;;;7.81;100.00;100257.19;5246459;28;20574;-79
2024/03/24 06:06:43;;;;;;;9.80;3.50;;;;;;;7.77;100.00;100259.22;5247157;28;20033;-80
2024/03/24 06:09:17;;;;;;;8.15;2.90;;;;;;;7.83;100.00;100270.91;5246230;28;20037;-80
2024/03/24 06:11:49;;;;;;;10.38;2.97;;;;;;;7.83;100.00;100280.53;5244681;28;20028;-80
2024/03/24 06:14:21;;;;;;;8.30;3.20;;;;;;;7.76;100.00;100274.97;5246195;28;20055;-80
2024/03/24 06:16:52;;;;;;;7.65;2.85;;;;;;;7.88;100.00;100275.75;5245638;28;20096;-81
2024/03/24 06:19:24;;;;;;;6.78;2.58;;;;;;;7.88;100.00;100275.75;5245380;28;20029;-80
2024/03/24 06:21:56;;;;;;;9.50;3.33;;;;;;;7.93;100.00;100292.69;5242692;28;20037;-80
2024/03/24 06:24:28;;;;;;;8.48;3.03;;;;;;;7.92;100.00;100278.00;5247753;28;20403;-79
2024/03/24 06:27:00;;;;;;;7.25;3.13;;;;;;;7.95;100.00;100284.72;5249722;28;20029;-80
2024/03/24 06:29:32;;;;;;;9.88;3.65;;;;;;;7.97;100.00;100290.66;5247245;28;20036;-80
2024/03/24 06:32:04;;;;;;;8.70;3.33;;;;;;;7.95;100.00;100279.50;5249382;28;20037;-80
2024/03/24 06:34:36;;;;;;;7.95;3.25;;;;;;;7.96;100.00;100287.22;5249501;28;20045;-80
2024/03/24 06:37:08;;;;;;;11.57;4.25;;;;;;;7.99;100.00;100286.97;5248909;28;20191;-80
2024/03/24 06:39:40;;;;;;;12.77;3.83;;;;;;;7.96;100.00;100278.56;5248421;28;20031;-80
2024/03/24 06:42:12;;;;;;;9.63;3.90;;;;;;;8.04;100.00;100291.81;5246463;28;20037;-81
2024/03/24 06:44:46;;;;;;;11.98;3.97;;;;;;;8.04;100.00;100283.97;5248748;28;20064;-81
2024/03/24 06:47:18;;;;;;;11.38;4.40;;;;;;;8.09;100.00;100286.19;5247682;28;20043;-81
2024/03/24 06:49:50;;;;;;;12.52;4.60;;;;;;;8.13;100.00;100282.38;5247027;28;20037;-81
2024/03/24 06:52:21;;;;;;;10.50;4.57;;;;;;;8.09;100.00;100276.59;5249531;28;20039;-80
2024/03/24 06:54:53;;;;;;;8.98;4.05;;;;;;;8.06;100.00;100266.41;5249026;28;20029;-81
2024/03/24 06:57:28;;;;;;;10.63;4.03;;;;;;;8.19;100.00;100282.69;5250363;28;20033;-81
2024/03/24 06:59:59;;;;;;;10.48;4.38;;;;;;;8.12;100.00;100280.72;5248767;28;20037;-81
2024/03/24 07:02:31;;;;;;;14.52;4.30;;;;;;;8.09;100.00;100281.81;5249781;28;20035;-80
2024/03/24 07:05:04;;;;;;;13.13;3.90;;;;;;;8.13;100.00;100292.81;5251185;28;20389;-81
2024/03/24 07:07:38;;;;;;;8.13;3.35;;;;;;;8.14;100.00;100286.63;5228885;28;20346;-80
2024/03/24 07:10:10;;;;;;;9.27;3.90;;;;;;;8.11;100.00;100285.13;5245826;28;20395;-80
2024/03/24 07:12:42;;;;;;;12.88;4.35;;;;;;;8.13;100.00;100282.38;5242577;28;20424;-80
2024/03/24 07:15:14;;;;;;;12.35;4.85;;;;;;;8.09;100.00;100284.41;5248379;28;20033;-80
2024/03/24 07:17:46;;;;;;;9.18;4.55;;;;;;;8.11;100.00;100282.53;5247883;28;20504;-80
2024/03/24 07:20:18;;;;;;;10.75;4.15;;;;;;;8.26;100.00;100293.47;5248373;28;20037;-80
2024/03/24 07:22:50;;;;;;;11.68;4.70;;;;;;;8.31;100.00;100288.66;5248531;28;20647;-80
2024/03/24 07:25:22;;;;;;;11.23;4.50;;;;;;;8.43;100.00;100294.66;5248048;28;20497;-81
2024/03/24 07:27:54;;;;;;;15.90;4.72;;;;;;;8.48;100.00;100298.53;5248797;28;20032;-78
2024/03/24 07:30:26;;;;;;;11.88;4.22;;;;;;;8.58;100.00;100293.38;5247095;28;20033;-79
2024/03/24 07:32:58;;;;;;;12.30;4.63;;;;;;;8.62;100.00;100292.13;5248388;28;20780;-80
2024/03/24 07:35:29;;;;;;;9.80;4.65;;;;;;;8.73;100.00;100286.81;5247585;28;20033;-80
2024/03/24 07:38:01;;;;;;;9.77;4.72;;;;;;;8.83;100.00;100305.16;5247058;28;20041;-80
2024/03/24 07:40:33;;;;;;;12.35;5.32;;;;;;;8.84;100.00;100309.41;5247318;28;20028;-78
2024/03/24 07:43:06;;;;;;;12.93;5.15;;;;;;;8.91;100.00;100309.72;5248201;28;20087;-81
2024/03/24 07:45:39;;;;;;;10.63;3.88;;;;;;;9.00;100.00;100301.06;5228908;28;20136;-80
2024/03/24 07:48:11;;;;;;;13.73;4.72;;;;;;;9.02;100.00;100302.59;5243373;28;20521;-80
2024/03/24 07:50:43;;;;;;;12.00;3.92;;;;;;;9.11;100.00;100305.38;5244472;28;20032;-81
2024/03/24 07:53:15;;;;;;;10.98;3.75;;;;;;;9.17;100.00;100308.28;5247336;28;20039;-81
2024/03/24 07:55:46;;;;;;;7.10;3.45;;;;;;;9.22;100.00;100318.34;5247308;28;20047;-80
2024/03/24 07:58:18;;;;;;;11.13;4.28;;;;;;;9.30;100.00;100331.56;5252550;28;20592;-78
2024/03/24 08:00:51;;;;;;;11.13;3.50;;;;;;;9.35;100.00;100328.53;5254215;28;20405;-78
2024/03/24 08:03:23;;;;;;;11.82;4.20;;;;;;;9.45;100.00;100339.84;5257272;28;20036;-78
2024/03/24 08:05:54;;;;;;;13.77;4.20;;;;;;;9.51;100.00;100331.47;5254157;28;20028;-77
2024/03/24 08:08:26;;;;;;;12.18;5.00;;;;;;;9.56;100.00;100329.25;5255730;28;20195;-78
2024/03/24 08:10:58;;;;;;;9.55;3.88;;;;;;;9.41;100.00;100320.97;5255489;28;20529;-78
2024/03/24 08:13:30;;;;;;;11.40;3.53;;;;;;;9.50;100.00;100332.41;5256643;28;20031;-77
2024/03/24 08:16:03;;;;;;;11.35;3.08;;;;;;;9.66;100.00;100335.34;5252087;28;20041;-78
2024/03/24 08:18:36;;;;;;;6.47;2.80;;;;;;;9.79;100.00;100329.81;5254599;28;20375;-78
2024/03/24 08:21:08;;;;;;;14.23;3.30;;;;;;;9.79;100.00;100342.06;5253831;28;20025;-78
2024/03/24 08:23:40;;;;;;;9.25;3.17;;;;;;;9.80;100.00;100339.31;5255068;28;20496;-78
2024/03/24 08:26:12;;;;;;;9.55;2.90;;;;;;;9.91;100.00;100344.41;5252152;28;20055;-78
2024/03/24 08:28:44;;;;;;;8.88;3.13;;;;;;;10.05;100.00;100348.41;5254428;28;20036;-78
2024/03/24 08:31:16;;;;;;;11.90;3.03;;;;;;;10.17;100.00;100346.47;5252643;28;20029;-77
2024/03/24 08:33:48;;;;;;;11.63;3.33;;;;;;;10.14;100.00;100351.97;5230371;28;20048;-78
2024/03/24 08:36:20;;;;;;;9.90;3.28;;;;;;;9.98;100.00;100311.50;5252892;28;20029;-77
2024/03/24 08:38:52;;;;;;;7.55;2.53;;;;;;;10.17;100.00;100346.47;5247330;28;20045;-78
2024/03/24 08:41:24;;;;;;;8.32;2.60;;;;;;;10.13;100.00;100343.31;5243971;28;20462;-78
2024/03/24 08:43:55;;;;;;;10.57;3.20;;;;;;;10.05;100.00;100337.13;5242405;28;20059;-78
2024/03/24 08:46:29;;;;;;;8.63;2.45;;;;;;;10.00;100.00;100340.16;5244735;28;20039;-79
2024/03/24 08:49:01;;;;;;;;;;;;;;;10.62;100.00;100359.78;5245493;28;20040;-79
2024/03/24 08:51:33;;;;;;;11.80;2.95;;;;;;;10.15;100.00;100343.16;5244124;28;19920;-78
2024/03/24 08:54:04;;;;;;;7.72;2.70;;;;;;;10.34;100.00;100356.28;5244736;28;20036;-78
2024/03/24 08:56:36;;;;;;;9.45;3.15;;;;;;;10.40;100.00;100350.44;5244634;28;20438;-79
2024/03/24 08:59:09;;;;;;;7.65;2.75;;;;;;;10.43;100.00;100350.19;5244060;28;20051;-79
2024/03/24 09:01:40;;;;;;;10.18;2.88;;;;;;;10.61;100.00;100359.94;5243334;28;20029;-78
2024/03/24 09:04:12;;;;;;;8.80;2.83;;;;;;;10.85;100.00;100348.94;5243683;28;20048;-78
2024/03/24 09:06:44;;;;;;;8.98;2.53;;;;;;;10.83;99.21;100349.06;5242420;28;20025;-78
2024/03/24 09:09:16;;;;;;;10.70;2.65;;;;;;;10.78;96.55;100348.69;5241729;28;20572;-78
2024/03/24 09:11:48;;;;;;;6.03;2.20;;;;;;;10.81;96.32;100358.88;5243055;28;20036;-78
2024/03/24 09:14:20;;;;;;;8.65;3.20;;;;;;;10.83;93.70;100372.66;5243887;28;21173;-79
2024/03/24 09:16:52;;;;;;;7.95;2.53;;;;;;;10.88;91.08;100361.78;5244010;28;20528;-78
2024/03/24 09:19:24;;;;;;;11.70;2.78;;;;;;;10.91;97.23;100356.22;5234213;28;20035;-79
2024/03/24 09:21:56;;;;;;;9.95;2.95;;;;;;;10.74;91.74;100359.59;5238608;28;20556;-78
2024/03/24 09:24:28;;;;;;;7.65;2.42;;;;;;;10.84;94.06;100349.94;5240010;28;20040;-78
2024/03/24 09:27:02;;;;;;;10.85;2.47;;;;;;;10.82;90.12;100362.34;5240090;28;20383;-78
2024/03/24 09:29:34;;;;;;;9.70;2.38;;;;;;;10.88;89.43;100367.84;5240982;28;20028;-79
2024/03/24 09:32:06;;;;;;;10.55;3.10;;;;;;;10.85;88.20;100357.63;5241110;28;20501;-79
2024/03/24 09:34:38;;;;;;;9.65;3.13;;;;;;;10.82;86.05;100370.19;5243292;28;20052;-79
2024/03/24 09:37:12;;;;;;;9.93;2.92;;;;;;;10.84;83.16;100355.16;5242193;28;20044;-79
2024/03/24 09:39:43;;;;;;;10.10;2.53;;;;;;;10.86;85.38;100366.31;5241343;28;20028;-79
2024/03/24 09:42:18;;;;;;;11.00;3.30;;;;;;;10.81;86.63;100371.16;5243098;28;20036;-79
2024/03/24 09:44:51;;;;;;;9.88;2.33;;;;;;;10.76;86.81;100362.91;5241300;28;20410;-79
2024/03/24 09:47:25;;;;;;;9.15;2.65;;;;;;;10.70;84.64;100364.31;5243440;28;20037;-79
2024/03/24 09:50:00;;;;;;;8.73;2.50;;;;;;;10.68;91.67;100363.59;5239545;28;20154;-79
2024/03/24 09:52:32;;;;;;;8.07;2.50;;;;;;;10.63;93.73;100385.00;5238664;28;20037;-79
2024/03/24 09:55:06;;;;;;;9.05;2.55;;;;;;;10.44;88.84;100387.66;5240979;28;20037;-78
2024/03/24 09:57:39;;;;;;;11.13;2.92;;;;;;;10.30;93.97;100388.91;5225349;28;20414;-79
2024/03/24 10:00:12;;;;;;;10.02;2.58;;;;;;;10.32;96.20;100376.53;5242042;28;20036;-78
2024/03/24 10:02:44;;;;;;;9.70;2.72;;;;;;;10.47;97.59;100380.34;5242503;28;20033;-78
2024/03/24 10:05:17;;;;;;;10.63;2.28;;;;;;;10.71;93.39;100384.28;5239645;28;20028;-79
2024/03/24 10:07:48;;;;;;;10.27;3.30;;;;;;;10.71;90.26;100377.25;5241354;28;20055;-79
2024/03/24 10:10:20;;;;;;;10.70;2.97;;;;;;;10.69;87.99;100386.25;5241727;28;20037;-78
2024/03/24 10:12:54;;;;;;;10.48;2.90;;;;;;;10.60;82.57;100387.06;5241683;28;20124;-78
2024/03/24 10:15:25;;;;;;;;;;;;;;;11.27;81.45;100386.00;5242996;28;20029;-79
2024/03/24 10:18:02;;;;;;;11.02;3.15;;;;;;;10.81;83.82;100392.97;5241617;28;20264;-79
2024/03/24 10:20:35;;;;;;;7.75;2.40;;;;;;;10.75;83.83;100393.50;5239554;28;20048;-79
2024/03/24 10:23:08;;;;;;;;;;;;;;;11.36;78.05;100393.00;5242114;28;20498;-79
2024/03/24 10:25:39;;;;;;;8.57;2.67;;;;;;;10.67;74.82;100396.03;5242207;28;20333;-78
2024/03/24 10:28:12;;;;;;;9.48;2.35;;;;;;;10.69;75.72;100381.81;5223543;28;20064;-79
2024/03/24 10:30:43;;;;;;;8.82;2.47;;;;;;;10.65;75.36;100404.03;5241098;28;20363;-79
2024/03/24 10:33:16;;;;;;;8.27;2.60;;;;;;;10.51;82.52;100394.00;5241833;28;20032;-78
2024/03/24 10:35:48;;;;;;;10.97;2.47;;;;;;;10.63;82.60;100400.72;5243272;28;20060;-79
2024/03/24 10:38:19;;;;;;;7.82;2.40;;;;;;;10.52;85.13;100386.97;5242120;28;20037;-78
2024/03/24 10:40:55;;;;;;;6.60;2.40;;;;;;;10.66;82.72;100397.81;5241524;28;20036;-79
2024/03/24 10:43:27;;;;;;;10.70;2.88;;;;;;;10.50;88.18;100388.91;5241341;28;20300;-79
2024/03/24 10:45:59;;;;;;;8.85;2.65;;;;;;;10.37;85.72;100417.97;5239391;28;20044;-79
2024/03/24 10:48:33;;;;;;;11.20;2.60;;;;;;;10.25;90.92;100433.00;5240439;28;20028;-79
2024/03/24 10:51:09;;;;;;;9.43;2.90;;;;;;;10.09;100.00;100430.09;5235876;28;20051;-79
2024/03/24 10:53:43;;;;;;;9.43;2.70;;;;;;;9.89;100.00;100437.94;5240934;28;20025;-79
2024/03/24 10:56:17;;;;;;;10.68;2.67;;;;;;;9.70;100.00;100430.06;5240594;28;20047;-78
2024/03/24 10:58:50;;;;;;;10.18;2.72;;;;;;;9.62;100.00;100435.09;5241228;28;20048;-78
2024/03/24 11:01:22;;;;;;;10.15;3.50;;;;;;;9.67;100.00;100431.13;5241251;28;20051;-78
2024/03/24 11:03:57;;;;;;;12.68;3.47;;;;;;;9.74;100.00;100434.06;5242510;28;20037;-78
2024/03/24 11:06:31;;;;;;;10.75;2.97;;;;;;;9.71;100.00;100442.16;5240341;28;20482;-78
2024/03/24 11:09:05;;;;;;;11.32;2.83;;;;;;;9.56;100.00;100438.28;5241338;28;20763;-79
2024/03/24 11:11:38;;;;;;;10.88;2.67;;;;;;;9.60;100.00;100431.81;5244946;28;20049;-79
2024/03/24 11:14:11;;;;;;;9.25;3.10;;;;;;;9.59;100.00;100440.63;5245259;28;20048;-79
2024/03/24 11:16:43;;;;;;;;;;;;;;;10.18;100.00;100439.72;5247448;28;20552;-78
2024/03/24 11:19:15;;;;;;;10.55;3.15;;;;;;;9.70;100.00;100432.66;5247046;28;19913;-78
2024/03/24 11:21:48;;;;;;;11.45;3.63;;;;;;;9.69;100.00;100428.38;5245895;28;20029;-78
2024/03/24 11:24:24;;;;;;;;;;;;;;;10.36;100.00;100451.22;5247965;28;20043;-78
2024/03/24 11:26:59;;;;;;;9.35;3.20;;;;;;;9.75;100.00;100444.38;5246255;28;20405;-78
2024/03/24 11:29:47;;;;;;;11.95;3.78;;;;;;;9.82;100.00;100449.91;5246384;28;20048;-78
2024/03/24 11:32:20;;;;;;;12.02;3.78;;;;;;;9.59;100.00;100446.69;5244853;28;20045;-78
2024/03/24 11:34:53;;;;;;;;;;;;;;;10.24;100.00;100452.28;5247714;28;20423;-78
2024/03/24 11:37:29;;;;;;;14.45;3.65;;;;;;;9.70;100.00;100437.91;5245535;28;19916;-78
2024/03/24 11:40:03;;;;;;;11.82;3.47;;;;;;;9.60;100.00;100434.44;5245113;28;20044;-78
2024/03/24 11:42:38;;;;;;;14.27;3.20;;;;;;;9.59;100.00;100438.84;5245182;28;20033;-78
2024/03/24 11:45:30;;;;;;;9.88;2.90;;;;;;;9.95;100.00;100432.13;5246009;28;20049;-78
2024/03/24 11:48:14;;;;;;;10.75;3.28;;;;;;;9.85;100.00;100440.94;5244221;28;20501;-78